Dobrodošli na spletni strani vremenske postaje Senovo. Vse informacije so informativnega značaja, saj vremenska postaja ni del državne mreže meteoroloških postaj. AKTUALNIH OBVESTIL NI.


Posebna pozornost v zvezi z vremenskimi dogajanji ni potrebna.    Posebna pozornost v zvezi z vremenskimi dogajanji ni potrebna.

Pogled proti Armezu več informacij Pogled proti Armezu


Lisca več informacij Lisca


Radar strel več informacij blitzortung!


Radar padavin več informacij rain snow radar


Obiščite še:

Template documentation
and downloads

And another site



Weather Underground, zgodovina - Tekstovno

Dnevni povzetek za December 31, 2017 Enote:  Angleško    Metrično   Obe
« Predhodni Dan
Naslednji Dan »
Dnevni Tedenski Mesečni Letni Po meri
  Višja: Nižja: Povprečje:
Temperatura: TemperatureC °F -0.4 °F 7 °F
Točka rosišča: DewpointC °F -1.2 °F 2.3 °F
Vlažnost: Humidity % 57 % 73 %
Hitrost vetra: WindSpeedKMH mph 0.0 mph 5.1 mph
Sunki vetra: WindSpeedGustKMH mph - -
Veter:- - WSW
Zračni tlak: PressurehPa in 1012.1 in -
Padavine: 0.0 in    
Historical Graphs
 
 
Tabelarni podarki za December 31, 2017
Čas Temperatura Točka rosišča Zračni tlak Veter Hitrost vetra Sunki vetra Vlažnost Intenziteta padavin (urna)
TemperatureC °F DewpointC °F PressurehPa in Calm     Humidity % HourlyPrecipMM in
00:01 -0.4 °F -1.2 °F 1013.1 in Calm     94 % 0.0 in
00:06 0.2 °F -0.5 °F 1013.1 in WNW 2.9 mph 14.0 mph 95 % 0.0 in
00:10 0.4 °F -0.3 °F 1013.1 in WNW 4.0 mph 14.0 mph 95 % 0.0 in
00:14 0.5 °F -0.2 °F 1014.1 in WNW 3.2 mph 9.7 mph 95 % 0.0 in
00:15 0.6 °F -0.1 °F 1014.1 in WNW 2.6 mph 9.7 mph 95 % 0.0 in
00:19 0.7 °F 0.0 °F 1014.1 in WSW 1.1 mph 4.7 mph 95 % 0.0 in
00:24 1.0 °F 0.3 °F 1014.1 in West 2.4 mph 7.9 mph 95 % 0.0 in
00:26 1.0 °F 0.3 °F 1014.1 in West 2.6 mph 7.9 mph 95 % 0.0 in
00:31 1.3 °F 0.6 °F 1014.1 in WSW 3.9 mph 6.4 mph 95 % 0.0 in
00:33 1.3 °F 0.6 °F 1014.1 in SW 3.9 mph 6.4 mph 95 % 0.0 in
00:34 1.3 °F 0.6 °F 1014.1 in SW 3.9 mph 6.9 mph 95 % 0.0 in
00:39 1.9 °F 1.3 °F 1014.1 in WSW 4.7 mph 9.3 mph 96 % 0.0 in
00:44 2.3 °F 1.6 °F 1013.1 in SW 5.1 mph 9.3 mph 95 % 0.0 in
00:47 2.4 °F 1.8 °F 1013.1 in SSW 5.3 mph 9.3 mph 96 % 0.0 in
00:51 2.6 °F 2.0 °F 1013.1 in SSW 3.5 mph 6.4 mph 96 % 0.0 in
00:52 2.6 °F 2.0 °F 1013.1 in SSW 3.4 mph 6.4 mph 96 % 0.0 in
00:57 2.7 °F 2.1 °F 1013.1 in SSW 2.4 mph 7.9 mph 96 % 0.0 in
00:59 2.7 °F 2.1 °F 1014.1 in South 2.9 mph 7.9 mph 96 % 0.0 in
01:04 2.6 °F 2.0 °F 1014.1 in South 3.2 mph 7.9 mph 96 % 0.0 in
01:06 2.6 °F 1.9 °F 1014.1 in South 4.0 mph 6.9 mph 95 % 0.0 in
01:11 2.5 °F 1.8 °F 1014.1 in SSW 3.2 mph 5.8 mph 95 % 0.0 in
01:14 2.5 °F 1.8 °F 1014.1 in SSW 2.3 mph 5.8 mph 95 % 0.0 in
01:19 2.5 °F 1.8 °F 1014.1 in SSW 1.8 mph 5.5 mph 95 % 0.0 in
01:20 2.6 °F 1.9 °F 1014.1 in SSW 2.1 mph 6.1 mph 95 % 0.0 in
01:25 2.7 °F 2.0 °F 1014.1 in SSW 4.2 mph 6.9 mph 95 % 0.0 in
01:26 2.8 °F 2.1 °F 1014.1 in South 4.7 mph 6.9 mph 95 % 0.0 in
01:27 2.8 °F 2.1 °F 1014.1 in South 4.7 mph 9.0 mph 95 % 0.0 in
01:32 2.9 °F 2.2 °F 1015.1 in South 5.5 mph 9.0 mph 95 % 0.0 in
01:36 3.0 °F 2.3 °F 1015.1 in South 5.6 mph 9.0 mph 95 % 0.0 in
01:37 3.0 °F 2.3 °F 1015.1 in South 5.5 mph 9.0 mph 95 % 0.0 in
01:41 3.0 °F 2.3 °F 1015.1 in South 5.3 mph 12.6 mph 95 % 0.0 in
01:43 3.0 °F 2.3 °F 1015.1 in South 5.5 mph 12.6 mph 95 % 0.0 in
01:45 3.0 °F 2.3 °F 1015.1 in South 5.1 mph 12.6 mph 95 % 0.0 in
01:50 3.1 °F 2.4 °F 1015.1 in SSW 5.3 mph 12.6 mph 95 % 0.0 in
01:53 3.1 °F 2.2 °F 1015.1 in SW 4.3 mph 10.5 mph 94 % 0.0 in
01:54 3.1 °F 2.2 °F 1015.1 in SW 4.2 mph 10.5 mph 94 % 0.0 in
01:59 3.0 °F 2.1 °F 1015.1 in SW 2.4 mph 6.1 mph 94 % 0.0 in
02:00 3.0 °F 2.1 °F 1015.1 in SW 2.4 mph 6.1 mph 94 % 0.0 in
02:05 2.7 °F 1.8 °F 1015.1 in SW 2.3 mph 5.5 mph 94 % 0.0 in
02:06 2.6 °F 1.7 °F 1015.1 in WSW 2.3 mph 5.5 mph 94 % 0.0 in
02:07 2.5 °F 1.6 °F 1015.1 in WSW 2.6 mph 5.5 mph 94 % 0.0 in
02:12 2.4 °F 1.6 °F 1015.1 in NW 3.1 mph 9.0 mph 94 % 0.0 in
02:17 2.3 °F 1.4 °F 1015.1 in NW 3.1 mph 9.0 mph 94 % 0.0 in
02:18 2.3 °F 1.3 °F 1015.1 in NW 2.9 mph 9.0 mph 93 % 0.0 in
02:20 2.3 °F 1.3 °F 1015.1 in WNW 2.4 mph 5.5 mph 93 % 0.0 in
02:24 2.5 °F 1.5 °F 1015.1 in WSW 1.8 mph 6.9 mph 93 % 0.0 in
02:29 2.6 °F 1.6 °F 1014.1 in West 1.9 mph 6.9 mph 93 % 0.0 in
02:31 2.6 °F 1.6 °F 1014.1 in West 1.8 mph 6.1 mph 93 % 0.0 in
02:36 2.7 °F 1.7 °F 1014.1 in NW 1.0 mph 6.1 mph 93 % 0.0 in
02:38 2.7 °F 1.7 °F 1014.1 in NNW 1.0 mph 5.0 mph 93 % 0.0 in
02:39 2.7 °F 1.7 °F 1014.1 in NNW 1.1 mph 5.0 mph 93 % 0.0 in
02:44 2.7 °F 1.7 °F 1014.1 in NNW 2.4 mph 6.1 mph 93 % 0.0 in
02:45 2.8 °F 1.8 °F 1014.1 in NNW 2.6 mph 6.1 mph 93 % 0.0 in
02:50 3.1 °F 2.1 °F 1014.1 in WNW 2.9 mph 9.3 mph 93 % 0.0 in
02:51 3.2 °F 2.2 °F 1014.1 in WNW 2.9 mph 9.3 mph 93 % 0.0 in
02:52 3.2 °F 2.2 °F 1014.1 in WNW 3.1 mph 9.3 mph 93 % 0.0 in
02:57 3.5 °F 2.5 °F 1014.1 in West 3.2 mph 7.6 mph 93 % 0.0 in
03:02 3.7 °F 2.7 °F 1014.1 in West 2.6 mph 7.6 mph 93 % 0.0 in
03:04 3.7 °F 2.7 °F 1014.1 in SW 1.9 mph 5.8 mph 93 % 0.0 in
03:08 3.8 °F 2.8 °F 1014.1 in SW 2.6 mph 6.9 mph 93 % 0.0 in
03:13 3.9 °F 2.9 °F 1014.1 in SW 2.4 mph 6.9 mph 93 % 0.0 in
03:15 3.9 °F 2.7 °F 1014.1 in SW 1.9 mph 6.9 mph 92 % 0.0 in
03:20 4.1 °F 2.9 °F 1014.1 in SW 3.2 mph 7.6 mph 92 % 0.0 in
03:25 4.2 °F 3.0 °F 1014.1 in SW 3.4 mph 6.9 mph 92 % 0.0 in
03:30 4.1 °F 2.8 °F 1014.1 in SW 2.3 mph 5.0 mph 91 % 0.0 in
03:31 4.1 °F 2.8 °F 1014.1 in SW 2.1 mph 5.0 mph 91 % 0.0 in
03:36 4.2 °F 2.9 °F 1014.1 in SW 3.5 mph 9.3 mph 91 % 0.0 in
03:41 4.3 °F 2.9 °F 1014.1 in SW 4.7 mph 9.7 mph 91 % 0.0 in
03:44 4.4 °F 3.1 °F 1013.1 in WSW 4.5 mph 9.7 mph 91 % 0.0 in
03:49 4.5 °F 3.0 °F 1013.1 in WSW 4.7 mph 13.0 mph 90 % 0.0 in
03:54 4.7 °F 3.2 °F 1013.1 in WSW 5.8 mph 13.0 mph 90 % 0.0 in
03:55 4.7 °F 3.2 °F 1013.1 in WSW 6.1 mph 13.0 mph 90 % 0.0 in
04:00 4.8 °F 3.3 °F 1013.1 in WSW 5.3 mph 11.1 mph 90 % 0.0 in
04:04 4.8 °F 3.2 °F 1013.1 in SW 5.3 mph 11.1 mph 89 % 0.0 in
04:05 4.8 °F 3.2 °F 1013.1 in SW 5.3 mph 10.1 mph 89 % 0.0 in
04:11 4.9 °F 3.2 °F 1013.1 in SW 5.6 mph 15.8 mph 89 % 0.0 in
04:16 5.1 °F 3.3 °F 1013.1 in WSW 6.8 mph 15.8 mph 88 % 0.0 in
04:21 5.1 °F 3.1 °F 1013.1 in WSW 7.2 mph 14.0 mph 87 % 0.0 in
04:24 5.2 °F 3.2 °F 1013.1 in WSW 6.6 mph 14.0 mph 87 % 0.0 in
04:29 5.1 °F 3.1 °F 1012.1 in SW 6.0 mph 10.5 mph 87 % 0.0 in
04:34 5.1 °F 2.9 °F 1012.1 in SW 5.1 mph 10.1 mph 86 % 0.0 in
04:35 5.1 °F 2.9 °F 1012.1 in SW 5.0 mph 10.1 mph 86 % 0.0 in
04:40 5.1 °F 2.9 °F 1012.1 in SSW 5.5 mph 10.1 mph 86 % 0.0 in
04:41 5.1 °F 2.9 °F 1012.1 in SSW 5.5 mph 10.1 mph 86 % 0.0 in
04:46 5.1 °F 2.8 °F 1012.1 in SSW 4.5 mph 9.7 mph 85 % 0.0 in
04:50 5.2 °F 2.9 °F 1012.1 in SSW 3.9 mph 9.7 mph 85 % 0.0 in
04:55 5.1 °F 2.6 °F 1012.1 in SSW 3.9 mph 9.7 mph 84 % 0.0 in
04:57 5.1 °F 2.6 °F 1012.1 in South 4.2 mph 9.7 mph 84 % 0.0 in
05:02 5.1 °F 2.6 °F 1012.1 in South 4.8 mph 11.6 mph 84 % 0.0 in
05:06 5.2 °F 2.6 °F 1012.1 in SSW 5.3 mph 11.6 mph 83 % 0.0 in
05:12 5.2 °F 2.6 °F 1012.1 in SSW 5.5 mph 11.1 mph 83 % 0.0 in
05:14 5.2 °F 2.6 °F 1013.1 in South 4.8 mph 9.0 mph 83 % 0.0 in
05:19 5.1 °F 2.3 °F 1013.1 in South 4.3 mph 8.7 mph 82 % 0.0 in
05:24 5.1 °F 2.3 °F 1013.1 in South 2.9 mph 8.7 mph 82 % 0.0 in
05:26 5.1 °F 2.1 °F 1013.1 in South 2.9 mph 7.6 mph 81 % 0.0 in
05:31 5.0 °F 2.0 °F 1013.1 in South 3.1 mph 6.9 mph 81 % 0.0 in
05:35 5.0 °F 2.0 °F 1013.1 in South 4.2 mph 6.9 mph 81 % 0.0 in
05:40 5.0 °F 1.8 °F 1013.1 in SSW 4.0 mph 6.9 mph 80 % 0.0 in
05:41 5.0 °F 1.8 °F 1013.1 in SSW 3.9 mph 10.5 mph 80 % 0.0 in
05:46 5.1 °F 1.9 °F 1012.1 in SSW 4.8 mph 10.5 mph 80 % 0.0 in
05:48 5.1 °F 1.9 °F 1012.1 in SSW 5.1 mph 10.5 mph 80 % 0.0 in
05:50 5.1 °F 1.9 °F 1012.1 in SSW 6.1 mph 10.5 mph 80 % 0.0 in
05:55 5.1 °F 1.8 °F 1012.1 in SSW 6.1 mph 10.1 mph 79 % 0.0 in
05:57 5.2 °F 1.8 °F 1012.1 in SSW 6.9 mph 13.0 mph 79 % 0.0 in
06:02 5.3 °F 1.9 °F 1013.1 in SSW 7.6 mph 13.0 mph 79 % 0.0 in
06:07 5.4 °F 1.9 °F 1013.1 in SSW 6.3 mph 11.1 mph 78 % 0.0 in
06:12 5.4 °F 1.9 °F 1013.1 in SSW 6.0 mph 16.9 mph 78 % 0.0 in
06:17 5.5 °F 1.9 °F 1013.1 in SSW 6.6 mph 16.9 mph 78 % 0.0 in
06:22 5.5 °F 1.9 °F 1013.1 in SSW 7.2 mph 16.9 mph 78 % 0.0 in
06:23 5.5 °F 1.8 °F 1013.1 in SSW 7.2 mph 16.9 mph 77 % 0.0 in
06:24 5.5 °F 1.8 °F 1013.1 in SSW 7.6 mph 16.9 mph 77 % 0.0 in
06:25 5.6 °F 1.9 °F 1013.1 in SW 7.9 mph 16.9 mph 77 % 0.0 in
06:30 5.7 °F 2.0 °F 1014.1 in WSW 7.7 mph 20.9 mph 77 % 0.0 in
06:31 5.7 °F 2.0 °F 1014.1 in WSW 8.0 mph 20.9 mph 77 % 0.0 in
06:36 5.7 °F 2.0 °F 1014.1 in WSW 7.9 mph 20.9 mph 77 % 0.0 in
06:41 5.8 °F 1.9 °F 1014.1 in WSW 7.6 mph 16.9 mph 76 % 0.0 in
06:43 5.8 °F 1.9 °F 1013.1 in WSW 7.1 mph 16.9 mph 76 % 0.0 in
06:49 5.7 °F 1.8 °F 1013.1 in SW 5.3 mph 10.1 mph 76 % 0.0 in
06:54 5.8 °F 1.7 °F 1013.1 in SW 4.0 mph 7.6 mph 75 % 0.0 in
06:56 5.8 °F 1.7 °F 1013.1 in SW 3.7 mph 7.6 mph 75 % 0.0 in
07:00 5.8 °F 1.7 °F 1014.1 in SE 3.1 mph 5.8 mph 75 % 0.0 in
07:05 5.8 °F 1.7 °F 1014.1 in SE 2.9 mph 6.9 mph 75 % 0.0 in
07:06 5.8 °F 1.7 °F 1014.1 in South 3.1 mph 9.7 mph 75 % 0.0 in
07:11 5.8 °F 1.5 °F 1014.1 in SW 4.0 mph 14.3 mph 74 % 0.0 in
07:13 5.8 °F 1.5 °F 1014.1 in SW 4.7 mph 14.3 mph 74 % 0.0 in
07:15 5.8 °F 1.5 °F 1014.1 in WSW 4.7 mph 14.3 mph 74 % 0.0 in
07:19 5.8 °F 1.5 °F 1014.1 in SW 4.3 mph 14.3 mph 74 % 0.0 in
07:24 5.8 °F 1.5 °F 1014.1 in WSW 4.5 mph 9.3 mph 74 % 0.0 in
07:25 5.8 °F 1.5 °F 1014.1 in WSW 4.7 mph 9.3 mph 74 % 0.0 in
07:30 5.8 °F 1.3 °F 1015.1 in SW 5.3 mph 14.0 mph 73 % 0.0 in
07:35 5.8 °F 1.3 °F 1015.1 in SW 5.3 mph 14.0 mph 73 % 0.0 in
07:40 5.8 °F 1.3 °F 1015.1 in SW 4.0 mph 10.1 mph 73 % 0.0 in
07:45 5.9 °F 1.4 °F 1015.1 in WSW 5.5 mph 11.6 mph 73 % 0.0 in
07:46 5.9 °F 1.4 °F 1015.1 in WSW 6.0 mph 11.6 mph 73 % 0.0 in
07:47 5.9 °F 1.4 °F 1015.1 in WSW 6.3 mph 11.6 mph 73 % 0.0 in
07:51 5.9 °F 1.2 °F 1015.1 in WSW 6.9 mph 16.6 mph 72 % 0.0 in
07:52 5.9 °F 1.2 °F 1015.1 in WSW 6.9 mph 16.6 mph 72 % 0.0 in
07:57 6.0 °F 1.3 °F 1015.1 in SW 6.8 mph 16.6 mph 72 % 0.0 in
08:02 6.1 °F 1.4 °F 1015.1 in WSW 6.9 mph 14.0 mph 72 % 0.0 in
08:03 6.1 °F 1.4 °F 1015.1 in WSW 7.1 mph 14.0 mph 72 % 0.0 in
08:08 6.2 °F 1.3 °F 1015.1 in WSW 7.1 mph 13.7 mph 71 % 0.0 in
08:09 6.2 °F 1.3 °F 1015.1 in SW 7.6 mph 13.7 mph 71 % 0.0 in
08:11 6.1 °F 1.2 °F 1015.1 in SW 8.0 mph 13.7 mph 71 % 0.0 in
08:15 6.1 °F 1.2 °F 1015.1 in SW 8.4 mph 13.7 mph 71 % 0.0 in
08:20 6.2 °F 1.3 °F 1015.1 in WSW 6.6 mph 12.2 mph 71 % 0.0 in
08:24 6.3 °F 1.4 °F 1015.1 in WSW 6.3 mph 27.7 mph 71 % 0.0 in
08:26 6.3 °F 1.4 °F 1015.1 in WSW 6.1 mph 27.7 mph 71 % 0.0 in
08:31 6.3 °F 1.4 °F 1015.1 in West 6.8 mph 27.7 mph 71 % 0.0 in
08:32 6.4 °F 1.5 °F 1015.1 in WSW 6.9 mph 27.7 mph 71 % 0.0 in
08:37 6.4 °F 1.3 °F 1015.1 in WSW 7.1 mph 22.7 mph 70 % 0.0 in
08:42 6.4 °F 1.3 °F 1015.1 in WSW 7.1 mph 12.2 mph 70 % 0.0 in
08:43 6.4 °F 1.3 °F 1015.1 in WSW 6.9 mph 12.2 mph 70 % 0.0 in
08:48 6.4 °F 1.3 °F 1015.1 in WSW 6.9 mph 12.2 mph 70 % 0.0 in
08:53 6.5 °F 1.4 °F 1015.1 in WSW 7.7 mph 21.2 mph 70 % 0.0 in
08:54 6.5 °F 1.4 °F 1015.1 in WSW 8.0 mph 21.2 mph 70 % 0.0 in
08:59 6.5 °F 1.2 °F 1016.1 in WSW 7.2 mph 21.2 mph 69 % 0.0 in
09:04 6.5 °F 1.2 °F 1016.1 in West 6.3 mph 17.2 mph 69 % 0.0 in
09:08 6.5 °F 1.2 °F 1016.1 in West 7.7 mph 28.0 mph 69 % 0.0 in
09:10 6.6 °F 1.3 °F 1016.1 in West 8.2 mph 28.0 mph 69 % 0.0 in
09:13 6.6 °F 1.3 °F 1016.1 in West 8.5 mph 28.0 mph 69 % 0.0 in
09:18 6.6 °F 1.3 °F 1016.1 in SW 7.1 mph 15.4 mph 69 % 0.0 in
09:20 6.6 °F 1.3 °F 1016.1 in SW 6.9 mph 18.3 mph 69 % 0.0 in
09:26 6.7 °F 1.2 °F 1016.1 in SW 7.6 mph 20.1 mph 68 % 0.0 in
09:31 6.8 °F 1.3 °F 1016.1 in WSW 8.5 mph 20.1 mph 68 % 0.0 in
09:32 6.8 °F 1.3 °F 1016.1 in WSW 9.0 mph 20.1 mph 68 % 0.0 in
09:37 7.0 °F 1.3 °F 1016.1 in WSW 9.2 mph 20.6 mph 67 % 0.0 in
09:38 7.0 °F 1.3 °F 1016.1 in WSW 9.0 mph 20.6 mph 67 % 0.0 in
09:43 7.1 °F 1.4 °F 1016.1 in West 7.4 mph 20.6 mph 67 % 0.0 in
09:45 7.2 °F 1.5 °F 1016.1 in West 7.7 mph 20.6 mph 67 % 0.0 in
09:48 7.3 °F 1.6 °F 1016.1 in West 7.6 mph 17.7 mph 67 % 0.0 in
09:50 7.3 °F 1.6 °F 1016.1 in West 8.4 mph 19.8 mph 67 % 0.0 in
09:53 7.4 °F 1.7 °F 1016.1 in West 9.2 mph 19.8 mph 67 % 0.0 in
09:58 7.6 °F 1.8 °F 1016.1 in WSW 10.1 mph 19.8 mph 67 % 0.0 in
10:03 7.8 °F 1.8 °F 1016.1 in West 11.7 mph 19.5 mph 66 % 0.0 in
10:04 7.8 °F 1.8 °F 1016.1 in West 11.6 mph 19.5 mph 66 % 0.0 in
10:05 7.8 °F 1.8 °F 1016.1 in West 11.9 mph 19.5 mph 66 % 0.0 in
10:10 7.9 °F 1.9 °F 1016.1 in West 10.5 mph 17.2 mph 66 % 0.0 in
10:15 8.0 °F 1.8 °F 1016.1 in West 8.7 mph 17.2 mph 65 % 0.0 in
10:17 8.0 °F 1.8 °F 1016.1 in West 7.9 mph 16.3 mph 65 % 0.0 in
10:22 8.1 °F 1.9 °F 1016.1 in WSW 9.2 mph 18.0 mph 65 % 0.0 in
10:27 8.2 °F 2.0 °F 1016.1 in WSW 9.5 mph 23.8 mph 65 % 0.0 in
10:28 8.2 °F 1.8 °F 1016.1 in West 9.2 mph 23.8 mph 64 % 0.0 in
10:33 8.3 °F 1.9 °F 1016.1 in West 8.5 mph 23.8 mph 64 % 0.0 in
10:34 8.3 °F 1.9 °F 1016.1 in West 8.2 mph 16.9 mph 64 % 0.0 in
10:39 8.4 °F 2.0 °F 1016.1 in WSW 6.6 mph 15.1 mph 64 % 0.0 in
10:40 8.4 °F 2.0 °F 1016.1 in WSW 6.6 mph 15.1 mph 64 % 0.0 in
10:45 8.5 °F 2.1 °F 1016.1 in SW 6.8 mph 20.1 mph 64 % 0.0 in
10:46 8.5 °F 2.1 °F 1016.1 in WSW 7.7 mph 20.1 mph 64 % 0.0 in
10:48 8.6 °F 1.9 °F 1016.1 in WSW 9.2 mph 20.1 mph 63 % 0.0 in
10:53 8.7 °F 2.1 °F 1016.1 in West 9.3 mph 20.1 mph 63 % 0.0 in
10:58 8.8 °F 2.1 °F 1016.1 in SW 9.0 mph 17.7 mph 63 % 0.0 in
11:02 8.8 °F 2.1 °F 1016.1 in SW 8.0 mph 16.9 mph 63 % 0.0 in
11:03 8.8 °F 2.1 °F 1016.1 in WSW 8.8 mph 16.9 mph 63 % 0.0 in
11:08 8.9 °F 2.2 °F 1016.1 in WNW 7.6 mph 16.6 mph 63 % 0.0 in
11:13 9.0 °F 2.1 °F 1016.1 in WNW 7.9 mph 20.9 mph 62 % 0.0 in
11:14 9.0 °F 2.1 °F 1016.1 in WNW 8.0 mph 20.9 mph 62 % 0.0 in
11:16 9.0 °F 2.1 °F 1016.1 in West 7.7 mph 20.9 mph 62 % 0.0 in
11:19 9.0 °F 2.1 °F 1016.1 in West 7.7 mph 20.9 mph 62 % 0.0 in
11:24 9.2 °F 2.3 °F 1016.1 in WNW 6.9 mph 15.8 mph 62 % 0.0 in
11:25 9.2 °F 2.3 °F 1016.1 in WNW 7.1 mph 15.8 mph 62 % 0.0 in
11:30 9.5 °F 2.3 °F 1016.1 in WSW 7.9 mph 20.1 mph 61 % 0.0 in
11:32 9.6 °F 2.4 °F 1016.1 in SW 7.9 mph 20.1 mph 61 % 0.0 in
11:37 9.8 °F 2.6 °F 1016.1 in SW 6.4 mph 12.2 mph 61 % 0.0 in
11:38 9.8 °F 2.6 °F 1016.1 in SW 5.6 mph 12.2 mph 61 % 0.0 in
11:43 10.1 °F 2.9 °F 1016.8 in WSW 6.4 mph 16.3 mph 61 % 0.0 in
11:47 10.2 °F 3.0 °F 1016.8 in WSW 5.6 mph 16.3 mph 61 % 0.0 in
11:52 10.3 °F 3.1 °F 1016.8 in West 6.0 mph 14.0 mph 61 % 0.0 in
11:57 10.3 °F 2.9 °F 1016.8 in West 6.4 mph 16.3 mph 60 % 0.0 in
11:58 10.3 °F 2.9 °F 1016.8 in West 6.8 mph 16.3 mph 60 % 0.0 in
12:03 10.3 °F 2.9 °F 1016.8 in West 6.9 mph 16.9 mph 60 % 0.0 in
12:08 10.4 °F 2.7 °F 1016.8 in West 5.8 mph 16.9 mph 59 % 0.0 in
12:09 10.4 °F 2.7 °F 1016.8 in West 5.8 mph 16.9 mph 59 % 0.0 in
12:11 10.4 °F 2.7 °F 1016.8 in West 5.1 mph 16.9 mph 59 % 0.0 in
12:15 10.4 °F 2.7 °F 1016.1 in West 5.5 mph 15.4 mph 59 % 0.0 in
12:20 10.4 °F 2.7 °F 1016.1 in West 5.0 mph 15.4 mph 59 % 0.0 in
12:25 10.4 °F 2.7 °F 1016.1 in WNW 5.3 mph 17.7 mph 59 % 0.0 in
12:26 10.4 °F 2.5 °F 1016.1 in WNW 5.3 mph 17.7 mph 58 % 0.0 in
12:31 10.4 °F 2.5 °F 1016.1 in WNW 6.6 mph 17.7 mph 58 % 0.0 in
12:34 10.5 °F 2.6 °F 1016.1 in WNW 6.9 mph 13.0 mph 58 % 0.0 in
12:38 10.5 °F 2.6 °F 1016.1 in WNW 6.6 mph 13.0 mph 58 % 0.0 in
12:41 10.5 °F 2.6 °F 1016.1 in WNW 6.0 mph 13.0 mph 58 % 0.0 in
12:46 10.5 °F 2.6 °F 1016.1 in NW 5.1 mph 13.7 mph 58 % 0.0 in
12:47 10.5 °F 2.6 °F 1016.1 in NW 5.1 mph 13.7 mph 58 % 0.0 in
12:52 10.6 °F 2.7 °F 1016.1 in NW 5.8 mph 13.7 mph 58 % 0.0 in
12:57 10.5 °F 2.6 °F 1016.1 in WNW 5.8 mph 12.6 mph 58 % 0.0 in
13:00 10.5 °F 2.3 °F 1015.1 in WNW 5.5 mph 11.1 mph 57 % 0.0 in
13:02 10.4 °F 2.2 °F 1015.1 in WNW 6.3 mph 11.9 mph 57 % 0.0 in
13:07 10.3 °F 2.2 °F 1015.1 in NW 5.5 mph 11.9 mph 57 % 0.0 in
13:08 10.3 °F 2.2 °F 1015.1 in NW 5.3 mph 11.9 mph 57 % 0.0 in
13:13 10.3 °F 2.2 °F 1015.1 in West 6.6 mph 18.0 mph 57 % 0.0 in
13:14 10.3 °F 2.2 °F 1015.1 in West 6.8 mph 18.0 mph 57 % 0.0 in
13:19 10.2 °F 2.1 °F 1015.1 in West 7.7 mph 18.0 mph 57 % 0.0 in
13:21 10.2 °F 2.1 °F 1015.1 in West 7.2 mph 18.0 mph 57 % 0.0 in
13:26 10.1 °F 1.9 °F 1015.1 in West 6.8 mph 20.9 mph 57 % 0.0 in
13:31 10.1 °F 1.9 °F 1014.1 in West 7.6 mph 20.9 mph 57 % 0.0 in
13:35 10.0 °F 1.9 °F 1014.1 in West 8.4 mph 16.9 mph 57 % 0.0 in
13:36 10.0 °F 1.9 °F 1014.1 in WSW 7.4 mph 16.9 mph 57 % 0.0 in
13:41 10.1 °F 1.9 °F 1014.1 in West 6.4 mph 16.9 mph 57 % 0.0 in
13:42 10.1 °F 1.9 °F 1014.1 in West 6.3 mph 16.9 mph 57 % 0.0 in
13:47 10.1 °F 1.9 °F 1014.1 in WNW 7.1 mph 20.6 mph 57 % 0.0 in
13:48 10.1 °F 1.9 °F 1014.1 in WNW 7.7 mph 20.6 mph 57 % 0.0 in
13:51 10.1 °F 1.9 °F 1014.1 in WNW 7.9 mph 20.6 mph 57 % 0.0 in
13:56 10.1 °F 1.9 °F 1014.1 in WNW 6.6 mph 20.6 mph 57 % 0.0 in
13:57 10.1 °F 1.9 °F 1014.1 in WNW 6.8 mph 17.7 mph 57 % 0.0 in
13:58 10.1 °F 1.9 °F 1015.1 in West 6.1 mph 14.3 mph 57 % 0.0 in
14:04 10.1 °F 1.9 °F 1015.1 in West 6.1 mph 14.0 mph 57 % 0.0 in
14:05 10.1 °F 1.9 °F 1015.1 in West 5.6 mph 14.0 mph 57 % 0.0 in
14:10 10.3 °F 2.4 °F 1015.1 in WSW 6.0 mph 14.0 mph 58 % 0.0 in
14:14 10.4 °F 2.5 °F 1015.1 in West 6.1 mph 12.2 mph 58 % 0.0 in
14:15 10.4 °F 2.5 °F 1015.1 in West 5.8 mph 12.2 mph 58 % 0.0 in
14:20 10.5 °F 2.6 °F 1015.1 in West 5.8 mph 12.2 mph 58 % 0.0 in
14:23 10.5 °F 2.6 °F 1015.1 in WSW 6.0 mph 12.2 mph 58 % 0.0 in
14:28 10.4 °F 2.5 °F 1015.1 in WSW 5.6 mph 12.2 mph 58 % 0.0 in
14:33 10.4 °F 2.5 °F 1015.1 in West 6.6 mph 21.6 mph 58 % 0.0 in
14:35 10.4 °F 2.5 °F 1015.1 in West 7.1 mph 21.6 mph 58 % 0.0 in
14:36 10.4 °F 2.5 °F 1015.1 in West 6.9 mph 21.6 mph 58 % 0.0 in
14:41 10.3 °F 2.2 °F 1015.1 in West 6.0 mph 16.9 mph 57 % 0.0 in
14:44 10.3 °F 2.2 °F 1014.1 in West 5.8 mph 16.9 mph 57 % 0.0 in
14:49 10.3 °F 2.2 °F 1014.1 in WSW 6.4 mph 15.8 mph 57 % 0.0 in
14:52 10.2 °F 2.1 °F 1014.1 in West 5.5 mph 13.0 mph 57 % 0.0 in
14:56 10.1 °F 1.9 °F 1014.1 in West 6.3 mph 20.6 mph 57 % 0.0 in
15:01 9.9 °F 1.8 °F 1014.1 in WSW 6.1 mph 20.6 mph 57 % 0.0 in
15:06 9.8 °F 1.7 °F 1014.1 in West 5.8 mph 11.9 mph 57 % 0.0 in
15:07 9.8 °F 1.7 °F 1014.1 in West 5.8 mph 11.9 mph 57 % 0.0 in
15:08 9.8 °F 1.7 °F 1014.1 in West 6.0 mph 11.9 mph 57 % 0.0 in
15:12 9.7 °F 1.6 °F 1014.1 in West 6.9 mph 12.2 mph 57 % 0.0 in
15:14 9.7 °F 1.6 °F 1015.1 in West 6.9 mph 12.2 mph 57 % 0.0 in
15:18 9.5 °F 1.4 °F 1015.1 in WSW 6.4 mph 11.6 mph 57 % 0.0 in
15:20 9.5 °F 1.4 °F 1015.1 in WSW 5.6 mph 11.6 mph 57 % 0.0 in
15:21 9.5 °F 1.6 °F 1015.1 in West 5.8 mph 16.3 mph 58 % 0.0 in
15:26 9.4 °F 1.6 °F 1015.1 in West 6.4 mph 16.3 mph 58 % 0.0 in
15:28 9.4 °F 1.6 °F 1014.1 in West 6.6 mph 16.3 mph 58 % 0.0 in
15:32 9.3 °F 1.4 °F 1014.1 in West 7.4 mph 14.8 mph 58 % 0.0 in
15:37 9.3 °F 1.4 °F 1014.1 in West 7.2 mph 13.0 mph 58 % 0.0 in
15:38 9.3 °F 1.4 °F 1014.1 in West 7.2 mph 13.0 mph 58 % 0.0 in
15:43 9.2 °F 1.6 °F 1015.1 in WSW 6.0 mph 9.7 mph 59 % 0.0 in
15:47 9.1 °F 1.5 °F 1015.1 in WSW 5.6 mph 10.1 mph 59 % 0.0 in
15:50 9.1 °F 1.5 °F 1015.1 in West 5.0 mph 10.1 mph 59 % 0.0 in
15:55 9.0 °F 1.4 °F 1015.1 in West 4.8 mph 10.1 mph 59 % 0.0 in
16:00 8.8 °F 1.4 °F 1015.1 in West 3.4 mph 10.8 mph 60 % 0.0 in
16:01 8.8 °F 1.4 °F 1015.1 in West 3.4 mph 10.8 mph 60 % 0.0 in
16:06 8.7 °F 1.6 °F 1015.1 in West 4.3 mph 11.6 mph 61 % 0.0 in
16:07 8.7 °F 1.6 °F 1015.1 in West 5.1 mph 11.6 mph 61 % 0.0 in
16:12 8.7 °F 1.6 °F 1015.1 in West 6.9 mph 11.6 mph 61 % 0.0 in
16:16 8.6 °F 1.5 °F 1015.1 in West 6.9 mph 10.5 mph 61 % 0.0 in
16:19 8.6 °F 1.7 °F 1015.1 in WSW 6.1 mph 10.5 mph 62 % 0.0 in
16:24 8.5 °F 1.6 °F 1015.1 in WSW 5.6 mph 10.1 mph 62 % 0.0 in
16:25 8.5 °F 1.6 °F 1015.1 in WSW 5.6 mph 10.1 mph 62 % 0.0 in
16:27 8.5 °F 1.6 °F 1015.1 in SW 6.0 mph 10.1 mph 62 % 0.0 in
16:31 8.5 °F 1.8 °F 1015.1 in WSW 5.0 mph 9.3 mph 63 % 0.0 in
16:32 8.5 °F 1.8 °F 1015.1 in WSW 5.3 mph 17.2 mph 63 % 0.0 in
16:37 8.4 °F 1.8 °F 1015.1 in WSW 6.3 mph 17.2 mph 63 % 0.0 in
16:40 8.3 °F 1.7 °F 1015.1 in WSW 6.6 mph 17.2 mph 63 % 0.0 in
16:45 8.2 °F 1.6 °F 1015.1 in SW 5.5 mph 11.6 mph 63 % 0.0 in
16:46 8.2 °F 1.6 °F 1015.1 in SW 5.3 mph 10.1 mph 63 % 0.0 in
16:50 8.2 °F 1.8 °F 1015.1 in WSW 5.1 mph 10.5 mph 64 % 0.0 in
16:53 8.1 °F 1.7 °F 1015.1 in SW 4.2 mph 10.5 mph 64 % 0.0 in
16:54 8.1 °F 1.7 °F 1015.1 in SW 4.0 mph 10.5 mph 64 % 0.0 in
16:59 8.1 °F 1.7 °F 1014.1 in SW 3.5 mph 9.3 mph 64 % 0.0 in
17:03 8.0 °F 1.8 °F 1014.1 in WSW 4.3 mph 12.2 mph 65 % 0.0 in
17:08 7.9 °F 1.7 °F 1014.1 in WSW 4.8 mph 12.6 mph 65 % 0.0 in
17:11 8.0 °F 1.8 °F 1014.1 in WSW 5.5 mph 12.6 mph 65 % 0.0 in
17:16 8.0 °F 2.1 °F 1015.1 in WSW 6.1 mph 14.0 mph 66 % 0.0 in
17:17 8.0 °F 2.1 °F 1015.1 in WSW 6.6 mph 14.0 mph 66 % 0.0 in
17:22 8.0 °F 2.1 °F 1015.1 in WSW 6.9 mph 15.4 mph 66 % 0.0 in
17:24 8.1 °F 2.1 °F 1015.1 in SW 7.2 mph 15.4 mph 66 % 0.0 in
17:25 8.1 °F 2.1 °F 1015.1 in SW 7.6 mph 15.4 mph 66 % 0.0 in
17:30 8.1 °F 2.3 °F 1015.1 in WSW 9.3 mph 13.0 mph 67 % 0.0 in
17:31 8.1 °F 2.3 °F 1015.1 in WSW 9.0 mph 13.0 mph 67 % 0.0 in
17:32 8.1 °F 2.3 °F 1015.1 in SW 8.8 mph 13.0 mph 67 % 0.0 in
17:36 8.1 °F 2.3 °F 1015.1 in SW 6.9 mph 12.2 mph 67 % 0.0 in
17:41 8.1 °F 2.3 °F 1015.1 in WSW 6.3 mph 11.6 mph 67 % 0.0 in
17:42 8.1 °F 2.3 °F 1015.1 in WSW 6.3 mph 11.6 mph 67 % 0.0 in
17:47 8.1 °F 2.6 °F 1014.1 in SW 6.6 mph 11.6 mph 68 % 0.0 in
17:49 8.1 °F 2.6 °F 1014.1 in SW 6.4 mph 11.6 mph 68 % 0.0 in
17:52 8.1 °F 2.6 °F 1014.1 in SW 5.6 mph 9.0 mph 68 % 0.0 in
17:54 8.1 °F 2.6 °F 1014.1 in SW 5.3 mph 8.7 mph 68 % 0.0 in
17:59 8.0 °F 2.4 °F 1015.1 in WSW 5.1 mph 9.0 mph 68 % 0.0 in
18:00 8.0 °F 2.4 °F 1015.1 in WSW 5.1 mph 9.0 mph 68 % 0.0 in
18:05 8.1 °F 2.6 °F 1015.1 in SW 5.6 mph 9.7 mph 68 % 0.0 in
18:07 8.1 °F 2.6 °F 1015.1 in SW 5.6 mph 9.7 mph 68 % 0.0 in
18:13 8.1 °F 2.8 °F 1014.1 in SW 5.8 mph 9.7 mph 69 % 0.0 in
18:15 8.1 °F 2.8 °F 1014.1 in WSW 5.6 mph 11.9 mph 69 % 0.0 in
18:20 8.1 °F 2.8 °F 1014.1 in WSW 5.1 mph 11.9 mph 69 % 0.0 in
18:25 8.1 °F 2.8 °F 1014.1 in SW 4.3 mph 6.9 mph 69 % 0.0 in
18:29 8.1 °F 2.8 °F 1015.1 in SW 3.9 mph 6.9 mph 69 % 0.0 in
18:31 8.1 °F 2.8 °F 1015.1 in WSW 2.9 mph 6.9 mph 69 % 0.0 in
18:36 8.0 °F 2.7 °F 1015.1 in NW 0.6 mph 4.0 mph 69 % 0.0 in
18:38 7.9 °F 2.8 °F 1015.1 in West 0.2 mph 1.4 mph 70 % 0.0 in
18:43 7.9 °F 2.8 °F 1014.1 in SSW 1.1 mph 5.5 mph 70 % 0.0 in
18:44 7.9 °F 2.8 °F 1014.1 in SSW 1.3 mph 5.5 mph 70 % 0.0 in
18:46 7.9 °F 2.8 °F 1014.1 in SSW 1.4 mph 5.5 mph 70 % 0.0 in
18:49 7.9 °F 2.8 °F 1014.1 in South 1.3 mph 5.5 mph 70 % 0.0 in
18:54 7.9 °F 2.8 °F 1014.1 in WSW 1.3 mph 6.4 mph 70 % 0.0 in
18:55 7.9 °F 2.8 °F 1014.1 in West 1.4 mph 9.7 mph 70 % 0.0 in
19:00 7.9 °F 2.9 °F 1015.1 in West 3.2 mph 9.7 mph 71 % 0.0 in
19:01 8.0 °F 2.8 °F 1015.1 in WNW 4.0 mph 9.7 mph 70 % 0.0 in
19:06 8.0 °F 3.1 °F 1015.1 in WNW 2.7 mph 9.0 mph 71 % 0.0 in
19:09 8.1 °F 3.2 °F 1015.1 in WNW 2.7 mph 9.0 mph 71 % 0.0 in
19:14 8.0 °F 3.1 °F 1014.1 in West 0.8 mph 6.9 mph 71 % 0.0 in
19:16 8.0 °F 3.1 °F 1014.1 in WNW 1.3 mph 6.9 mph 71 % 0.0 in
19:17 8.0 °F 3.1 °F 1014.1 in NE 1.0 mph 4.7 mph 71 % 0.0 in
19:22 8.0 °F 3.1 °F 1014.1 in NNE 0.5 mph 4.7 mph 71 % 0.0 in
19:24 8.0 °F 3.1 °F 1014.1 in NW 0.8 mph 4.7 mph 71 % 0.0 in
19:29 8.0 °F 3.1 °F 1015.1 in SW 1.3 mph 5.5 mph 71 % 0.0 in
19:31 8.0 °F 3.1 °F 1015.1 in SSW 1.9 mph 5.5 mph 71 % 0.0 in
19:36 8.0 °F 3.3 °F 1015.1 in South 2.6 mph 6.4 mph 72 % 0.0 in
19:37 8.0 °F 3.3 °F 1015.1 in South 2.9 mph 6.4 mph 72 % 0.0 in
19:39 8.0 °F 3.3 °F 1015.1 in SSW 2.9 mph 6.4 mph 72 % 0.0 in
19:42 8.0 °F 3.3 °F 1015.1 in SW 3.2 mph 6.4 mph 72 % 0.0 in
19:47 8.0 °F 3.3 °F 1014.1 in SW 4.0 mph 9.0 mph 72 % 0.0 in
19:49 8.0 °F 3.3 °F 1014.1 in SW 4.3 mph 9.3 mph 72 % 0.0 in
19:51 8.1 °F 3.3 °F 1014.1 in SW 4.7 mph 9.7 mph 72 % 0.0 in
19:56 8.1 °F 3.3 °F 1014.1 in SW 5.5 mph 9.7 mph 72 % 0.0 in
19:57 8.1 °F 3.3 °F 1014.1 in SW 5.3 mph 9.7 mph 72 % 0.0 in
20:02 8.1 °F 3.3 °F 1014.1 in SW 4.8 mph 7.6 mph 72 % 0.0 in
20:04 8.1 °F 3.3 °F 1014.1 in SW 4.8 mph 7.6 mph 72 % 0.0 in
20:08 8.1 °F 3.3 °F 1014.1 in SW 3.7 mph 6.9 mph 72 % 0.0 in
20:10 8.0 °F 3.3 °F 1014.1 in SW 3.2 mph 6.9 mph 72 % 0.0 in
20:15 8.0 °F 3.4 °F 1014.1 in SSW 3.5 mph 7.6 mph 73 % 0.0 in
20:17 8.0 °F 3.4 °F 1014.1 in SSW 3.9 mph 7.6 mph 73 % 0.0 in
20:21 8.0 °F 3.4 °F 1014.1 in SW 4.0 mph 7.6 mph 73 % 0.0 in
20:26 8.0 °F 3.4 °F 1014.1 in SSW 5.5 mph 12.6 mph 73 % 0.0 in
20:27 8.0 °F 3.4 °F 1014.1 in SSW 5.8 mph 12.6 mph 73 % 0.0 in
20:32 8.0 °F 3.4 °F 1014.1 in SSW 6.6 mph 12.6 mph 73 % 0.0 in
20:35 8.0 °F 3.4 °F 1014.1 in SSW 6.1 mph 10.5 mph 73 % 0.0 in
20:40 7.9 °F 3.3 °F 1014.1 in SSW 4.8 mph 9.7 mph 73 % 0.0 in
20:41 7.9 °F 3.3 °F 1014.1 in SSW 5.0 mph 9.7 mph 73 % 0.0 in
20:43 7.9 °F 3.3 °F 1013.1 in SSW 5.5 mph 12.2 mph 73 % 0.0 in
20:49 7.9 °F 3.6 °F 1013.1 in SSW 6.9 mph 12.2 mph 74 % 0.0 in
20:53 7.9 °F 3.6 °F 1013.1 in SSW 7.1 mph 12.2 mph 74 % 0.0 in
20:58 7.9 °F 3.6 °F 1013.1 in SSW 6.0 mph 11.6 mph 74 % 0.0 in
20:59 7.9 °F 3.6 °F 1013.1 in SSW 5.8 mph 11.6 mph 74 % 0.0 in
21:04 7.9 °F 3.6 °F 1013.1 in SW 4.3 mph 9.7 mph 74 % 0.0 in
21:06 7.9 °F 3.6 °F 1013.1 in SW 3.7 mph 9.7 mph 74 % 0.0 in
21:09 7.9 °F 3.6 °F 1013.1 in SSW 3.7 mph 9.7 mph 74 % 0.0 in
21:11 7.8 °F 3.4 °F 1013.1 in SSW 3.5 mph 5.5 mph 74 % 0.0 in
21:17 7.8 °F 3.4 °F 1013.1 in SSW 2.7 mph 5.0 mph 74 % 0.0 in
21:18 7.8 °F 3.4 °F 1013.1 in SW 2.9 mph 6.4 mph 74 % 0.0 in
21:20 7.8 °F 3.4 °F 1013.1 in SW 2.6 mph 6.4 mph 74 % 0.0 in
21:25 7.8 °F 3.4 °F 1013.1 in SW 2.1 mph 6.4 mph 74 % 0.0 in
21:30 7.7 °F 3.3 °F 1012.1 in South 1.9 mph 4.7 mph 74 % 0.0 in
21:31 7.7 °F 3.3 °F 1012.1 in South 1.9 mph 4.7 mph 74 % 0.0 in
21:35 7.7 °F 3.3 °F 1012.1 in South 2.4 mph 5.8 mph 74 % 0.0 in
21:37 7.7 °F 3.3 °F 1012.1 in South 2.3 mph 5.8 mph 74 % 0.0 in
21:42 7.6 °F 3.3 °F 1012.1 in SSW 1.3 mph 5.8 mph 74 % 0.0 in
21:44 7.5 °F 3.2 °F 1013.1 in SSW 1.0 mph 5.8 mph 74 % 0.0 in
21:49 7.5 °F 3.2 °F 1013.1 in WSW 0.2 mph 2.6 mph 74 % 0.0 in
21:50 7.5 °F 3.2 °F 1013.1 in SW 0.2 mph 1.8 mph 74 % 0.0 in
21:55 7.5 °F 3.3 °F 1013.1 in Calm     75 % 0.0 in
22:00 7.5 °F 3.3 °F 1014.1 in SSW 1.1 mph 4.7 mph 75 % 0.0 in
22:03 7.5 °F 3.3 °F 1014.1 in SW 1.9 mph 6.4 mph 75 % 0.0 in
22:04 7.5 °F 3.3 °F 1014.1 in SSW 2.1 mph 6.4 mph 75 % 0.0 in
22:09 7.5 °F 3.3 °F 1014.1 in SSW 2.4 mph 6.4 mph 75 % 0.0 in
22:10 7.5 °F 3.3 °F 1014.1 in SSW 2.3 mph 6.4 mph 75 % 0.0 in
22:15 7.5 °F 3.3 °F 1013.1 in SSW 2.9 mph 6.9 mph 75 % 0.0 in
22:19 7.5 °F 3.3 °F 1013.1 in SSW 4.7 mph 8.7 mph 75 % 0.0 in
22:24 7.6 °F 3.4 °F 1013.1 in SSW 4.8 mph 8.7 mph 75 % 0.0 in
22:29 7.7 °F 3.6 °F 1013.1 in SSW 2.7 mph 6.9 mph 75 % 0.0 in
22:32 7.7 °F 3.6 °F 1013.1 in SW 1.4 mph 6.1 mph 75 % 0.0 in
22:34 7.7 °F 3.7 °F 1013.1 in WSW 1.6 mph 6.1 mph 76 % 0.0 in
22:39 7.7 °F 3.7 °F 1013.1 in SW 2.6 mph 6.9 mph 76 % 0.0 in
22:40 7.7 °F 3.7 °F 1013.1 in SW 2.7 mph 6.9 mph 76 % 0.0 in
22:45 7.7 °F 3.7 °F 1013.1 in SW 3.4 mph 7.9 mph 76 % 0.0 in
22:48 7.7 °F 3.7 °F 1013.1 in WSW 2.7 mph 7.9 mph 76 % 0.0 in
22:51 7.7 °F 3.7 °F 1013.1 in SW 3.2 mph 7.9 mph 76 % 0.0 in
22:56 7.8 °F 3.8 °F 1013.1 in SW 4.3 mph 7.6 mph 76 % 0.0 in
22:57 7.8 °F 3.8 °F 1013.1 in SW 4.8 mph 7.6 mph 76 % 0.0 in
23:02 7.8 °F 3.8 °F 1013.1 in SW 4.0 mph 10.5 mph 76 % 0.0 in
23:05 7.8 °F 3.8 °F 1013.1 in SW 4.5 mph 10.5 mph 76 % 0.0 in
23:07 7.8 °F 3.8 °F 1013.1 in SW 4.5 mph 10.5 mph 76 % 0.0 in
23:12 7.8 °F 3.8 °F 1013.1 in SW 4.8 mph 9.0 mph 76 % 0.0 in
23:13 7.8 °F 3.8 °F 1013.1 in SW 4.8 mph 9.0 mph 76 % 0.0 in
23:18 7.7 °F 3.7 °F 1013.1 in SW 3.9 mph 10.5 mph 76 % 0.0 in
23:22 7.7 °F 3.7 °F 1013.1 in SW 4.2 mph 10.5 mph 76 % 0.0 in
23:27 7.7 °F 3.7 °F 1013.1 in SSW 4.2 mph 7.6 mph 76 % 0.0 in
23:28 7.7 °F 3.7 °F 1013.1 in SSW 4.3 mph 7.6 mph 76 % 0.0 in
23:33 7.8 °F 3.8 °F 1013.1 in SSW 3.9 mph 7.6 mph 76 % 0.0 in
23:34 7.8 °F 3.8 °F 1013.1 in SSW 3.5 mph 6.9 mph 76 % 0.0 in
23:36 7.8 °F 3.8 °F 1013.1 in South 3.7 mph 6.9 mph 76 % 0.0 in
23:41 7.8 °F 3.8 °F 1013.1 in South 2.9 mph 6.9 mph 76 % 0.0 in
23:46 7.7 °F 3.7 °F 1012.1 in SSW 2.6 mph 6.9 mph 76 % 0.0 in
23:47 7.7 °F 3.7 °F 1012.1 in SSW 2.7 mph 6.9 mph 76 % 0.0 in
23:52 7.7 °F 3.7 °F 1012.1 in SSW 2.4 mph 6.4 mph 76 % 0.0 in
23:57 7.7 °F 3.7 °F 1012.1 in South 3.1 mph 6.4 mph 76 % 0.0 in
Vremenska postaja Senovo
Podatki zbrani iz Weather Underground - 3.75 mb

Script developed by  Jim McMurry - jmcmurry@mwt.net Adapted for the template by  Wim van der Kuil - Leuven-Template.eu

Vremenski podatki so objavljeni na:

European Weather Network

WeatherCloud

Weather Underground

AWEKAS

HAMweather, WeatherForYou, PWS Weather

MapView

Geostik

Slovenia weather network

Oprema, ki se uporablja:

Vremenski program
Cumulus

Vremenski server
Asus

Cumulus

Asus